AirNav   Pilot Hours Calculator
 
 1125 users online  

PS28 Penn DDA Inc. Heliport
Philadelphia, Pennsylvania, USA

GOING TO PHILADELPHIA?


FAA INFORMATION EFFECTIVE 07 NOVEMBER 2019

Location

FAA Identifier: PS28
Lat/Long: 40-02-08.4010N 075-00-58.6140W
40-02.140017N 075-00.976900W
40.0356669,-75.0162817
(estimated)
Elevation: 25 ft. / 8 m (estimated)
Variation: 13W (1985)
Time zone: UTC -5 (UTC -4 during Daylight Saving Time)
Zip code: 19136

Heliport Operations

Heliport use: Private use. Permission required prior to landing
Activation date: 11/1983
Control tower: no
ARTCC: NEW YORK CENTER
FSS: WILLIAMSPORT FLIGHT SERVICE STATION
Attendance: UNATNDD
Segmented circle: no

Heliport Communications

WX ASOS at PNE (2.8 nm N): PHONE 215-677-0146
WX ASOS at VAY (10 nm SE): 119.325 (609-267-1176)
WX AWOS-3 at LOM (13 nm NW): 118.925 (215-646-1068)
WX ASOS at PHL (14 nm SW): PHONE 215-492-9617
WX ASOS at TTN (17 nm NE): 126.775 (609-538-8690)
WX ASOS at DYL (18 nm N): 118.875 (215-345-0392)

Nearby radio navigation aids

VOR radial/distance  VOR name  Freq  Var
ARDr211/14.0YARDLEY VOR/DME108.2010W
GXUr287/19.4MC GUIRE VORTAC110.6012W
RBVr257/25.9ROBBINSVILLE VORTAC113.8010W
PTWr123/27.4POTTSTOWN VORTAC116.5009W
OODr039/27.4WOODSTOWN VORTAC112.8010W
CYNr306/29.9COYLE VORTAC113.4010W
VCNr006/30.0CEDAR LAKE VOR/DME115.2010W
MXEr086/30.9MODENA VORTAC113.2009W
DQOr062/34.7DUPONT VORTAC114.0010W
SBJr211/35.2SOLBERG VOR/DME112.9010W

 
NDB name  Hdg/Dist  Freq  Var  ID
AMBLER126/13.527512WING .. -. --.
LAKEHURST280/31.339611WNEL -. . .-..
RAINBOW019/37.536311WRNB .-. -. -...

Heliport Services

Runway Information

Helipad H1

Dimensions: 32 x 32 ft. / 10 x 10 m
Surface: asphalt
Traffic pattern: leftleft

Heliport Ownership and Management from official FAA records

Ownership: Privately-owned
Owner: PENN DETROIT DIESEL ALLISON
8330 STATE ROAD
PHILADELPHIA, PA 19136
Phone 215-335-0500
Manager: G.L. TIFFAN
8330 STATE ROAD
PHILADELPHIA, PA 19136
Phone 215-335-0500

Additional Remarks

A52-H1 22' BLDG 90' SE.
FOR CD CTC PHILADELPHIA APCH AT 800-354-9884.

Instrument Procedures

There are no published instrument procedures at PS28.

Some nearby airports with instrument procedures:

KPNE - Northeast Philadelphia Airport (3 nm N)
KVAY - South Jersey Regional Airport (10 nm SE)
N14 - Flying W Airport (11 nm SE)
KLOM - Wings Field Airport (13 nm NW)
KPHL - Philadelphia International Airport (14 nm SW)
19N - Camden County Airport (16 nm S)
KTTN - Trenton Mercer Airport (17 nm NE)
KDYL - Doylestown Airport (18 nm N)
KWRI - McGuire Field (Joint Base Mc Guire Dix Lakehurst) Airport (20 nm E)
17N - Cross Keys Airport (20 nm S)
 
Loc | Ops | Rwys | IFR | FBO | Links
Com | Nav | Svcs | Stats | Notes
Area around PS28 (Penn DDA Inc. Heliport)
 
Road maps at: MapQuest Bing Google
 
Aerial photo
No photo
 
Sectional chart

 
Airport distance calculator
Flying to Penn DDA Inc. Heliport? Find the distance to fly.

From to PS28

Sunrise and sunset
Times for 15-Nov-2019
 Local
(UTC-5)
 Zulu
(UTC)
Morning civil twilight06:1711:17
Sunrise06:4611:46
Sunset16:4321:43
Evening civil twilight17:1222:12

Current date and time
Zulu (UTC)  15-Nov-2019 22:02:44
Local (UTC-5)  15-Nov-2019 17:02:44
 
METAR
KPNE 
3nm N 
152154Z 27006KT 10SM CLR 09/M05 A3018 RMK AO2 SLP220 T00891050
KVAY 
10nm SE 
ASOS 119.325 609-267-1176
152154Z AUTO 26003KT 10SM CLR 08/M05 A3017 RMK AO2 SLP216 T00831050
KLOM 
13nm NW 
152155Z AUTO 28003KT 10SM CLR 07/M04 A3017 RMK AO2 T00731036
KPHL 
14nm SW 
152154Z 28007KT 10SM BKN250 09/M06 A3019 RMK AO2 SLP222 T00941061 $
KTTN 
17nm NE 
ASOS 133.70 609-538-8690
152153Z 27005KT 10SM CLR 08/M05 A3015 RMK AO2 SLP205 T00831050
KDYL 
18nm N 
152154Z AUTO 23004KT 10SM CLR 08/M05 A3015 RMK AO2 SLP215 T00831050
KWRI 
20nm E 
152156Z AUTO 00000KT 10SM CLR 07/M04 A3015 RMK AO2 SLP210 T00701041
TAF
KPNE 
3nm N 
151739Z 1518/1618 30012KT P6SM SCT250 FM152200 29008KT P6SM SCT250 FM160200 33005KT P6SM SCT250 FM160500 36008KT P6SM FEW250 FM161000 02012KT P6SM FEW250 FM161400 04015KT P6SM FEW250
KPHL 
14nm SW 
151739Z 1518/1624 25008KT P6SM SCT250 FM152200 29006KT P6SM SCT250 FM160200 32006KT P6SM SCT250 FM160500 36008KT P6SM FEW250 FM160900 02012G16KT P6SM FEW250 FM161500 04015G24KT P6SM FEW250
KTTN 
17nm NE 
151739Z 1518/1618 28009KT P6SM FEW250 FM152300 29005KT P6SM SCT250 FM160300 35007KT P6SM FEW250 FM160900 02010KT P6SM FEW250 FM161500 04014KT P6SM FEW250
KWRI 
20nm E 
151800Z 1518/1624 30009KT 9999 FEW220 QNH3012INS BECMG 1523/1524 32009KT 9999 FEW220 QNH3018INS BECMG 1610/1611 04015G28KT 9999 FEW220 QNH3034INS BECMG 1620/1621 04012KT 9999 FEW220 QNH3036INS TX14/1520Z TNM03/1610Z
NOTAMs
Click for the latest NOTAMs
NOTAMs are issued by the DoD/FAA and will open in a separate window not controlled by AirNav.

 

 
 

Would you like to see your business listed on this page?

 If your business provides an interesting product or service to pilots, flight crews, aircraft, or users of the Penn DDA Inc. Heliport, you should consider listing it here.  To start the listing process, click on the button below
 
Add a business
 

Other Pages about Penn DDA Inc. Heliport

Update a link
 
Copyright © AirNav, LLC. All rights reserved. Privacy Policy  Contact